sensor_id;sensor_type;location;lat;lon;timestamp;P1;durP1;ratioP1;P2;durP2;ratioP2
54665;SDS011;40566;50.006;36.180;2022-07-25T00:01:23;8.20;;;3.47;;
54665;SDS011;40566;50.006;36.180;2022-07-25T00:06:24;6.95;;;3.50;;
54665;SDS011;40566;50.006;36.180;2022-07-25T00:11:25;6.47;;;3.63;;
54665;SDS011;40566;50.006;36.180;2022-07-25T00:16:25;6.75;;;3.42;;
54665;SDS011;40566;50.006;36.180;2022-07-25T00:21:26;7.80;;;3.95;;
54665;SDS011;40566;50.006;36.180;2022-07-25T00:26:27;8.20;;;4.28;;
54665;SDS011;40566;50.006;36.180;2022-07-25T00:31:28;7.40;;;4.03;;
54665;SDS011;40566;50.006;36.180;2022-07-25T00:36:28;10.07;;;3.85;;
54665;SDS011;40566;50.006;36.180;2022-07-25T00:41:29;7.53;;;3.80;;
54665;SDS011;40566;50.006;36.180;2022-07-25T00:46:30;8.70;;;3.92;;
54665;SDS011;40566;50.006;36.180;2022-07-25T00:51:30;6.82;;;3.35;;
54665;SDS011;40566;50.006;36.180;2022-07-25T00:56:31;7.03;;;3.47;;
54665;SDS011;40566;50.006;36.180;2022-07-25T01:01:32;7.63;;;3.90;;
54665;SDS011;40566;50.006;36.180;2022-07-25T01:06:32;5.70;;;3.25;;
54665;SDS011;40566;50.006;36.180;2022-07-25T01:11:33;8.23;;;4.10;;
54665;SDS011;40566;50.006;36.180;2022-07-25T01:16:34;7.13;;;3.63;;
54665;SDS011;40566;50.006;36.180;2022-07-25T01:21:36;7.80;;;3.75;;
54665;SDS011;40566;50.006;36.180;2022-07-25T01:26:38;9.23;;;3.70;;
54665;SDS011;40566;50.006;36.180;2022-07-25T01:31:38;7.13;;;3.65;;
54665;SDS011;40566;50.006;36.180;2022-07-25T01:36:39;8.05;;;4.30;;
54665;SDS011;40566;50.006;36.180;2022-07-25T01:41:40;6.95;;;3.78;;
54665;SDS011;40566;50.006;36.180;2022-07-25T01:46:40;6.97;;;3.72;;
54665;SDS011;40566;50.006;36.180;2022-07-25T01:51:41;6.53;;;3.90;;
54665;SDS011;40566;50.006;36.180;2022-07-25T01:56:42;7.25;;;3.53;;
54665;SDS011;40566;50.006;36.180;2022-07-25T02:01:44;6.60;;;3.35;;
54665;SDS011;40566;50.006;36.180;2022-07-25T02:06:44;7.70;;;3.47;;
54665;SDS011;40566;50.006;36.180;2022-07-25T02:11:45;6.70;;;3.33;;
54665;SDS011;40566;50.006;36.180;2022-07-25T02:16:45;8.82;;;3.72;;
54665;SDS011;40566;50.006;36.180;2022-07-25T02:21:46;7.63;;;3.40;;
54665;SDS011;40566;50.006;36.180;2022-07-25T02:26:46;7.18;;;3.70;;
54665;SDS011;40566;50.006;36.180;2022-07-25T02:31:47;6.97;;;4.25;;
54665;SDS011;40566;50.006;36.180;2022-07-25T02:36:48;7.13;;;4.10;;
54665;SDS011;40566;50.006;36.180;2022-07-25T02:41:49;8.15;;;4.07;;
54665;SDS011;40566;50.006;36.180;2022-07-25T02:46:50;8.40;;;4.13;;
54665;SDS011;40566;50.006;36.180;2022-07-25T02:51:50;7.80;;;4.15;;
54665;SDS011;40566;50.006;36.180;2022-07-25T02:56:51;11.20;;;4.07;;
54665;SDS011;40566;50.006;36.180;2022-07-25T03:01:51;6.75;;;3.60;;
54665;SDS011;40566;50.006;36.180;2022-07-25T03:06:52;9.07;;;3.85;;
54665;SDS011;40566;50.006;36.180;2022-07-25T03:11:53;6.82;;;3.58;;
54665;SDS011;40566;50.006;36.180;2022-07-25T03:16:53;7.47;;;4.03;;
54665;SDS011;40566;50.006;36.180;2022-07-25T03:21:54;11.48;;;4.13;;
54665;SDS011;40566;50.006;36.180;2022-07-25T03:26:54;12.90;;;7.32;;
54665;SDS011;40566;50.006;36.180;2022-07-25T03:31:55;13.27;;;7.53;;
54665;SDS011;40566;50.006;36.180;2022-07-25T03:36:56;12.70;;;7.15;;
54665;SDS011;40566;50.006;36.180;2022-07-25T03:41:57;12.77;;;6.93;;
54665;SDS011;40566;50.006;36.180;2022-07-25T03:46:57;8.70;;;4.75;;
54665;SDS011;40566;50.006;36.180;2022-07-25T03:51:58;7.47;;;4.03;;
54665;SDS011;40566;50.006;36.180;2022-07-25T03:56:59;6.80;;;3.83;;
54665;SDS011;40566;50.006;36.180;2022-07-25T04:02:00;9.50;;;3.60;;
54665;SDS011;40566;50.006;36.180;2022-07-25T04:07:00;11.90;;;5.50;;
54665;SDS011;40566;50.006;36.180;2022-07-25T04:12:01;10.27;;;5.10;;
54665;SDS011;40566;50.006;36.180;2022-07-25T04:17:02;9.27;;;4.50;;
54665;SDS011;40566;50.006;36.180;2022-07-25T04:22:02;8.85;;;4.43;;
54665;SDS011;40566;50.006;36.180;2022-07-25T04:27:03;7.93;;;4.22;;
54665;SDS011;40566;50.006;36.180;2022-07-25T04:32:04;9.75;;;4.03;;
54665;SDS011;40566;50.006;36.180;2022-07-25T04:37:05;9.88;;;5.30;;
54665;SDS011;40566;50.006;36.180;2022-07-25T04:42:05;9.38;;;4.63;;
54665;SDS011;40566;50.006;36.180;2022-07-25T04:47:06;8.18;;;4.38;;
54665;SDS011;40566;50.006;36.180;2022-07-25T04:52:07;9.80;;;4.85;;
54665;SDS011;40566;50.006;36.180;2022-07-25T04:57:08;9.95;;;5.00;;
54665;SDS011;40566;50.006;36.180;2022-07-25T05:02:09;10.48;;;5.20;;
54665;SDS011;40566;50.006;36.180;2022-07-25T05:07:10;11.80;;;5.90;;
54665;SDS011;40566;50.006;36.180;2022-07-25T05:12:10;10.30;;;5.90;;
54665;SDS011;40566;50.006;36.180;2022-07-25T05:17:11;13.10;;;5.78;;
54665;SDS011;40566;50.006;36.180;2022-07-25T05:22:12;11.13;;;6.00;;
54665;SDS011;40566;50.006;36.180;2022-07-25T05:27:12;11.60;;;5.65;;
54665;SDS011;40566;50.006;36.180;2022-07-25T05:32:13;11.25;;;5.65;;
54665;SDS011;40566;50.006;36.180;2022-07-25T05:37:13;10.38;;;5.55;;
54665;SDS011;40566;50.006;36.180;2022-07-25T05:42:14;10.55;;;5.90;;
54665;SDS011;40566;50.006;36.180;2022-07-25T05:47:15;10.05;;;5.70;;
54665;SDS011;40566;50.006;36.180;2022-07-25T05:52:15;10.60;;;5.72;;
54665;SDS011;40566;50.006;36.180;2022-07-25T05:57:16;10.73;;;6.28;;
54665;SDS011;40566;50.006;36.180;2022-07-25T06:02:17;11.32;;;5.50;;
54665;SDS011;40566;50.006;36.180;2022-07-25T06:07:17;14.40;;;5.80;;
54665;SDS011;40566;50.006;36.180;2022-07-25T06:12:18;12.77;;;6.13;;
54665;SDS011;40566;50.006;36.180;2022-07-25T06:17:18;12.52;;;5.88;;
54665;SDS011;40566;50.006;36.180;2022-07-25T06:22:19;14.15;;;6.10;;
54665;SDS011;40566;50.006;36.180;2022-07-25T06:27:20;10.73;;;6.03;;
54665;SDS011;40566;50.006;36.180;2022-07-25T06:32:20;11.63;;;5.35;;
54665;SDS011;40566;50.006;36.180;2022-07-25T06:37:21;9.95;;;5.68;;
54665;SDS011;40566;50.006;36.180;2022-07-25T06:42:22;9.93;;;5.55;;
54665;SDS011;40566;50.006;36.180;2022-07-25T06:47:23;9.90;;;5.15;;
54665;SDS011;40566;50.006;36.180;2022-07-25T06:52:23;10.30;;;5.55;;
54665;SDS011;40566;50.006;36.180;2022-07-25T06:57:24;9.50;;;5.15;;
54665;SDS011;40566;50.006;36.180;2022-07-25T07:02:25;14.38;;;5.35;;
54665;SDS011;40566;50.006;36.180;2022-07-25T07:07:25;9.48;;;5.15;;
54665;SDS011;40566;50.006;36.180;2022-07-25T07:12:26;9.00;;;4.88;;
54665;SDS011;40566;50.006;36.180;2022-07-25T07:17:26;9.20;;;4.50;;
54665;SDS011;40566;50.006;36.180;2022-07-25T07:22:27;12.40;;;5.00;;
54665;SDS011;40566;50.006;36.180;2022-07-25T07:27:28;9.05;;;4.50;;
54665;SDS011;40566;50.006;36.180;2022-07-25T07:32:28;12.27;;;4.70;;
54665;SDS011;40566;50.006;36.180;2022-07-25T07:37:29;10.05;;;5.07;;
54665;SDS011;40566;50.006;36.180;2022-07-25T07:42:40;11.93;;;4.57;;
54665;SDS011;40566;50.006;36.180;2022-07-25T07:47:41;10.70;;;5.22;;
54665;SDS011;40566;50.006;36.180;2022-07-25T07:52:42;14.13;;;5.45;;
54665;SDS011;40566;50.006;36.180;2022-07-25T07:57:43;12.52;;;5.40;;
54665;SDS011;40566;50.006;36.180;2022-07-25T08:02:45;10.73;;;5.22;;
54665;SDS011;40566;50.006;36.180;2022-07-25T08:07:48;9.55;;;4.90;;
54665;SDS011;40566;50.006;36.180;2022-07-25T08:12:50;9.30;;;4.97;;
54665;SDS011;40566;50.006;36.180;2022-07-25T08:17:52;10.90;;;5.85;;
54665;SDS011;40566;50.006;36.180;2022-07-25T08:22:53;10.00;;;4.88;;
54665;SDS011;40566;50.006;36.180;2022-07-25T08:27:53;10.80;;;5.13;;
54665;SDS011;40566;50.006;36.180;2022-07-25T08:32:59;9.40;;;5.43;;
54665;SDS011;40566;50.006;36.180;2022-07-25T08:38:05;10.40;;;5.18;;
54665;SDS011;40566;50.006;36.180;2022-07-25T08:43:08;9.68;;;4.90;;
54665;SDS011;40566;50.006;36.180;2022-07-25T08:48:10;13.00;;;5.35;;
54665;SDS011;40566;50.006;36.180;2022-07-25T08:53:12;8.40;;;4.60;;
54665;SDS011;40566;50.006;36.180;2022-07-25T08:58:14;10.90;;;5.07;;
54665;SDS011;40566;50.006;36.180;2022-07-25T09:03:16;11.93;;;4.53;;
54665;SDS011;40566;50.006;36.180;2022-07-25T09:08:17;9.98;;;5.10;;
54665;SDS011;40566;50.006;36.180;2022-07-25T09:13:18;11.25;;;4.63;;
54665;SDS011;40566;50.006;36.180;2022-07-25T09:18:22;10.20;;;4.82;;
54665;SDS011;40566;50.006;36.180;2022-07-25T09:28:38;7.78;;;4.40;;
54665;SDS011;40566;50.006;36.180;2022-07-25T09:33:46;8.82;;;4.63;;
54665;SDS011;40566;50.006;36.180;2022-07-25T09:38:54;9.07;;;4.88;;
54665;SDS011;40566;50.006;36.180;2022-07-25T09:43:56;11.75;;;4.90;;
54665;SDS011;40566;50.006;36.180;2022-07-25T09:48:57;10.35;;;5.28;;
54665;SDS011;40566;50.006;36.180;2022-07-25T09:53:59;12.38;;;5.15;;
54665;SDS011;40566;50.006;36.180;2022-07-25T09:59:02;9.60;;;4.93;;
54665;SDS011;40566;50.006;36.180;2022-07-25T10:04:27;8.70;;;4.90;;
54665;SDS011;40566;50.006;36.180;2022-07-25T10:09:42;11.82;;;4.90;;
54665;SDS011;40566;50.006;36.180;2022-07-25T10:15:02;9.75;;;4.88;;
54665;SDS011;40566;50.006;36.180;2022-07-25T10:20:04;7.82;;;3.30;;
54665;SDS011;40566;50.006;36.180;2022-07-25T10:25:09;7.53;;;3.00;;
54665;SDS011;40566;50.006;36.180;2022-07-25T10:30:19;7.53;;;3.30;;
54665;SDS011;40566;50.006;36.180;2022-07-25T10:35:19;7.72;;;3.00;;
54665;SDS011;40566;50.006;36.180;2022-07-25T10:41:03;6.25;;;3.10;;
54665;SDS011;40566;50.006;36.180;2022-07-25T10:45:48;6.72;;;3.38;;
54665;SDS011;40566;50.006;36.180;2022-07-25T10:51:00;8.77;;;3.28;;
54665;SDS011;40566;50.006;36.180;2022-07-25T11:01:29;7.18;;;2.85;;
54665;SDS011;40566;50.006;36.180;2022-07-25T11:06:35;6.22;;;3.20;;
54665;SDS011;40566;50.006;36.180;2022-07-25T11:11:40;9.18;;;3.65;;
54665;SDS011;40566;50.006;36.180;2022-07-25T11:16:48;6.95;;;3.17;;
54665;SDS011;40566;50.006;36.180;2022-07-25T11:21:51;6.82;;;3.42;;
54665;SDS011;40566;50.006;36.180;2022-07-25T11:26:54;7.38;;;3.22;;
54665;SDS011;40566;50.006;36.180;2022-07-25T11:31:59;8.13;;;2.80;;
54665;SDS011;40566;50.006;36.180;2022-07-25T11:37:03;6.30;;;2.50;;
54665;SDS011;40566;50.006;36.180;2022-07-25T11:42:07;5.80;;;2.47;;
54665;SDS011;40566;50.006;36.180;2022-07-25T11:52:36;4.17;;;2.27;;
54665;SDS011;40566;50.006;36.180;2022-07-25T11:57:38;4.90;;;2.30;;
54665;SDS011;40566;50.006;36.180;2022-07-25T12:02:41;5.55;;;2.45;;
54665;SDS011;40566;50.006;36.180;2022-07-25T12:07:43;5.32;;;2.33;;
54665;SDS011;40566;50.006;36.180;2022-07-25T12:12:49;4.90;;;2.20;;
54665;SDS011;40566;50.006;36.180;2022-07-25T12:17:52;4.70;;;2.22;;
54665;SDS011;40566;50.006;36.180;2022-07-25T12:22:55;7.28;;;2.42;;
54665;SDS011;40566;50.006;36.180;2022-07-25T12:27:59;8.00;;;2.30;;
54665;SDS011;40566;50.006;36.180;2022-07-25T12:33:00;5.32;;;2.50;;
54665;SDS011;40566;50.006;36.180;2022-07-25T12:38:00;4.60;;;2.40;;
54665;SDS011;40566;50.006;36.180;2022-07-25T12:43:01;8.02;;;2.70;;
54665;SDS011;40566;50.006;36.180;2022-07-25T12:48:03;4.88;;;2.22;;
54665;SDS011;40566;50.006;36.180;2022-07-25T12:53:04;5.97;;;2.65;;
54665;SDS011;40566;50.006;36.180;2022-07-25T12:58:04;6.72;;;2.35;;
54665;SDS011;40566;50.006;36.180;2022-07-25T13:03:05;5.05;;;2.63;;
54665;SDS011;40566;50.006;36.180;2022-07-25T13:08:06;6.32;;;2.50;;
54665;SDS011;40566;50.006;36.180;2022-07-25T13:13:07;4.65;;;2.53;;
54665;SDS011;40566;50.006;36.180;2022-07-25T13:18:07;5.93;;;2.00;;
54665;SDS011;40566;50.006;36.180;2022-07-25T13:23:08;4.43;;;2.42;;
54665;SDS011;40566;50.006;36.180;2022-07-25T13:28:10;3.47;;;2.13;;
54665;SDS011;40566;50.006;36.180;2022-07-25T13:33:10;4.72;;;2.55;;
54665;SDS011;40566;50.006;36.180;2022-07-25T13:38:11;6.07;;;2.85;;
54665;SDS011;40566;50.006;36.180;2022-07-25T13:43:12;5.22;;;2.72;;
54665;SDS011;40566;50.006;36.180;2022-07-25T13:48:13;6.57;;;3.00;;
54665;SDS011;40566;50.006;36.180;2022-07-25T13:53:14;8.90;;;4.00;;
54665;SDS011;40566;50.006;36.180;2022-07-25T13:58:15;10.23;;;3.40;;
54665;SDS011;40566;50.006;36.180;2022-07-25T14:03:15;9.13;;;3.33;;
54665;SDS011;40566;50.006;36.180;2022-07-25T14:08:16;6.35;;;3.22;;
54665;SDS011;40566;50.006;36.180;2022-07-25T14:13:17;6.95;;;3.58;;
54665;SDS011;40566;50.006;36.180;2022-07-25T14:18:17;10.93;;;4.80;;
54665;SDS011;40566;50.006;36.180;2022-07-25T14:23:18;9.07;;;4.50;;
54665;SDS011;40566;50.006;36.180;2022-07-25T14:28:19;7.43;;;4.00;;
54665;SDS011;40566;50.006;36.180;2022-07-25T14:33:19;8.95;;;3.90;;
54665;SDS011;40566;50.006;36.180;2022-07-25T14:38:20;9.02;;;4.68;;
54665;SDS011;40566;50.006;36.180;2022-07-25T14:43:20;10.13;;;5.15;;
54665;SDS011;40566;50.006;36.180;2022-07-25T14:48:21;12.35;;;6.18;;
54665;SDS011;40566;50.006;36.180;2022-07-25T14:53:22;9.57;;;4.90;;
54665;SDS011;40566;50.006;36.180;2022-07-25T14:58:22;10.05;;;4.22;;
54665;SDS011;40566;50.006;36.180;2022-07-25T15:03:23;7.40;;;3.45;;
54665;SDS011;40566;50.006;36.180;2022-07-25T15:08:25;9.32;;;3.95;;
54665;SDS011;40566;50.006;36.180;2022-07-25T15:13:26;9.77;;;4.50;;
54665;SDS011;40566;50.006;36.180;2022-07-25T15:18:26;8.13;;;4.22;;
54665;SDS011;40566;50.006;36.180;2022-07-25T15:23:28;6.85;;;3.42;;
54665;SDS011;40566;50.006;36.180;2022-07-25T15:28:33;7.25;;;3.72;;
54665;SDS011;40566;50.006;36.180;2022-07-25T15:33:36;8.02;;;3.92;;
54665;SDS011;40566;50.006;36.180;2022-07-25T15:38:37;8.70;;;3.88;;
54665;SDS011;40566;50.006;36.180;2022-07-25T15:43:38;10.10;;;4.07;;
54665;SDS011;40566;50.006;36.180;2022-07-25T15:48:39;7.63;;;4.00;;
54665;SDS011;40566;50.006;36.180;2022-07-25T15:53:39;7.70;;;4.10;;
54665;SDS011;40566;50.006;36.180;2022-07-25T15:58:40;8.35;;;4.30;;
54665;SDS011;40566;50.006;36.180;2022-07-25T16:03:41;8.40;;;4.15;;
54665;SDS011;40566;50.006;36.180;2022-07-25T16:08:42;12.35;;;4.45;;
54665;SDS011;40566;50.006;36.180;2022-07-25T16:13:43;9.55;;;4.88;;
54665;SDS011;40566;50.006;36.180;2022-07-25T16:18:44;12.25;;;5.47;;
54665;SDS011;40566;50.006;36.180;2022-07-25T16:23:44;12.60;;;5.65;;
54665;SDS011;40566;50.006;36.180;2022-07-25T16:28:45;10.57;;;5.65;;
54665;SDS011;40566;50.006;36.180;2022-07-25T16:33:46;10.10;;;5.55;;
54665;SDS011;40566;50.006;36.180;2022-07-25T16:38:46;10.52;;;5.47;;
54665;SDS011;40566;50.006;36.180;2022-07-25T16:43:48;9.90;;;5.50;;
54665;SDS011;40566;50.006;36.180;2022-07-25T16:48:48;11.40;;;5.65;;
54665;SDS011;40566;50.006;36.180;2022-07-25T16:53:49;11.75;;;4.80;;
54665;SDS011;40566;50.006;36.180;2022-07-25T16:58:51;10.07;;;5.10;;
54665;SDS011;40566;50.006;36.180;2022-07-25T17:03:52;8.07;;;4.07;;
54665;SDS011;40566;50.006;36.180;2022-07-25T17:08:54;8.10;;;4.70;;
54665;SDS011;40566;50.006;36.180;2022-07-25T17:13:55;9.07;;;4.13;;
54665;SDS011;40566;50.006;36.180;2022-07-25T17:18:56;7.03;;;3.80;;
54665;SDS011;40566;50.006;36.180;2022-07-25T17:23:57;7.40;;;3.75;;
54665;SDS011;40566;50.006;36.180;2022-07-25T17:28:57;6.65;;;3.40;;
54665;SDS011;40566;50.006;36.180;2022-07-25T17:33:58;6.07;;;3.40;;
54665;SDS011;40566;50.006;36.180;2022-07-25T17:38:59;6.30;;;3.25;;
54665;SDS011;40566;50.006;36.180;2022-07-25T17:44:00;9.25;;;3.17;;
54665;SDS011;40566;50.006;36.180;2022-07-25T17:49:01;5.45;;;2.83;;
54665;SDS011;40566;50.006;36.180;2022-07-25T17:54:03;5.75;;;2.80;;
54665;SDS011;40566;50.006;36.180;2022-07-25T17:59:05;7.57;;;3.22;;
54665;SDS011;40566;50.006;36.180;2022-07-25T18:04:07;8.50;;;2.85;;
54665;SDS011;40566;50.006;36.180;2022-07-25T18:09:08;5.72;;;2.80;;
54665;SDS011;40566;50.006;36.180;2022-07-25T18:14:08;8.00;;;3.33;;
54665;SDS011;40566;50.006;36.180;2022-07-25T18:19:09;6.38;;;3.20;;
54665;SDS011;40566;50.006;36.180;2022-07-25T18:24:10;5.43;;;2.88;;
54665;SDS011;40566;50.006;36.180;2022-07-25T18:29:11;6.03;;;3.08;;
54665;SDS011;40566;50.006;36.180;2022-07-25T18:34:11;5.80;;;2.92;;
54665;SDS011;40566;50.006;36.180;2022-07-25T18:39:12;6.70;;;3.33;;
54665;SDS011;40566;50.006;36.180;2022-07-25T18:44:13;6.72;;;3.08;;
54665;SDS011;40566;50.006;36.180;2022-07-25T18:49:14;8.98;;;3.17;;
54665;SDS011;40566;50.006;36.180;2022-07-25T18:54:15;6.50;;;3.03;;
54665;SDS011;40566;50.006;36.180;2022-07-25T18:59:15;7.00;;;3.35;;
54665;SDS011;40566;50.006;36.180;2022-07-25T19:04:17;6.97;;;3.30;;
54665;SDS011;40566;50.006;36.180;2022-07-25T19:09:18;7.65;;;3.58;;
54665;SDS011;40566;50.006;36.180;2022-07-25T19:14:18;7.93;;;4.40;;
54665;SDS011;40566;50.006;36.180;2022-07-25T19:19:23;8.05;;;3.60;;
54665;SDS011;40566;50.006;36.180;2022-07-25T19:24:24;8.13;;;3.63;;
54665;SDS011;40566;50.006;36.180;2022-07-25T19:29:24;6.45;;;3.10;;
54665;SDS011;40566;50.006;36.180;2022-07-25T19:34:26;6.75;;;3.35;;
54665;SDS011;40566;50.006;36.180;2022-07-25T19:39:26;6.53;;;3.47;;
54665;SDS011;40566;50.006;36.180;2022-07-25T19:44:27;10.00;;;3.55;;
54665;SDS011;40566;50.006;36.180;2022-07-25T19:49:28;6.75;;;3.35;;
54665;SDS011;40566;50.006;36.180;2022-07-25T19:54:28;7.95;;;3.22;;
54665;SDS011;40566;50.006;36.180;2022-07-25T19:59:29;5.88;;;3.08;;
54665;SDS011;40566;50.006;36.180;2022-07-25T20:04:31;9.95;;;3.50;;
54665;SDS011;40566;50.006;36.180;2022-07-25T20:09:32;7.60;;;3.33;;
54665;SDS011;40566;50.006;36.180;2022-07-25T20:14:33;5.25;;;2.97;;
54665;SDS011;40566;50.006;36.180;2022-07-25T20:19:34;6.40;;;3.35;;
54665;SDS011;40566;50.006;36.180;2022-07-25T20:24:35;6.28;;;3.33;;
54665;SDS011;40566;50.006;36.180;2022-07-25T20:29:36;6.78;;;3.10;;
54665;SDS011;40566;50.006;36.180;2022-07-25T20:34:37;11.43;;;3.47;;
54665;SDS011;40566;50.006;36.180;2022-07-25T20:39:37;7.88;;;3.15;;
54665;SDS011;40566;50.006;36.180;2022-07-25T20:44:38;7.45;;;3.33;;
54665;SDS011;40566;50.006;36.180;2022-07-25T20:49:39;7.20;;;3.20;;
54665;SDS011;40566;50.006;36.180;2022-07-25T20:54:40;7.43;;;3.17;;
54665;SDS011;40566;50.006;36.180;2022-07-25T20:59:42;8.48;;;3.42;;
54665;SDS011;40566;50.006;36.180;2022-07-25T21:04:43;7.43;;;3.25;;
54665;SDS011;40566;50.006;36.180;2022-07-25T21:09:44;6.55;;;3.03;;
54665;SDS011;40566;50.006;36.180;2022-07-25T21:14:44;7.30;;;3.15;;
54665;SDS011;40566;50.006;36.180;2022-07-25T21:19:45;6.63;;;3.03;;
54665;SDS011;40566;50.006;36.180;2022-07-25T21:24:46;9.75;;;3.22;;
54665;SDS011;40566;50.006;36.180;2022-07-25T21:29:48;7.82;;;3.45;;
54665;SDS011;40566;50.006;36.180;2022-07-25T21:34:49;8.85;;;3.28;;
54665;SDS011;40566;50.006;36.180;2022-07-25T21:39:50;6.28;;;2.92;;
54665;SDS011;40566;50.006;36.180;2022-07-25T21:44:51;7.15;;;3.10;;
54665;SDS011;40566;50.006;36.180;2022-07-25T21:49:52;5.70;;;2.70;;
54665;SDS011;40566;50.006;36.180;2022-07-25T21:55:11;5.35;;;2.75;;
54665;SDS011;40566;50.006;36.180;2022-07-25T22:00:12;5.18;;;2.63;;
54665;SDS011;40566;50.006;36.180;2022-07-25T22:05:14;6.38;;;2.83;;
54665;SDS011;40566;50.006;36.180;2022-07-25T22:10:16;9.10;;;2.92;;
54665;SDS011;40566;50.006;36.180;2022-07-25T22:15:18;8.25;;;2.90;;
54665;SDS011;40566;50.006;36.180;2022-07-25T22:20:19;7.15;;;3.17;;
54665;SDS011;40566;50.006;36.180;2022-07-25T22:25:20;8.35;;;3.25;;
54665;SDS011;40566;50.006;36.180;2022-07-25T22:30:20;5.45;;;2.72;;
54665;SDS011;40566;50.006;36.180;2022-07-25T22:35:21;5.60;;;2.67;;
54665;SDS011;40566;50.006;36.180;2022-07-25T22:40:22;4.72;;;2.33;;
54665;SDS011;40566;50.006;36.180;2022-07-25T22:45:22;6.47;;;2.70;;
54665;SDS011;40566;50.006;36.180;2022-07-25T22:50:23;6.57;;;2.70;;
54665;SDS011;40566;50.006;36.180;2022-07-25T22:55:24;6.32;;;2.42;;
54665;SDS011;40566;50.006;36.180;2022-07-25T23:00:24;5.20;;;2.45;;
54665;SDS011;40566;50.006;36.180;2022-07-25T23:05:25;6.22;;;2.67;;
54665;SDS011;40566;50.006;36.180;2022-07-25T23:10:26;5.72;;;2.70;;
54665;SDS011;40566;50.006;36.180;2022-07-25T23:15:26;5.78;;;2.70;;
54665;SDS011;40566;50.006;36.180;2022-07-25T23:20:27;5.90;;;3.05;;
54665;SDS011;40566;50.006;36.180;2022-07-25T23:25:28;10.20;;;2.83;;
54665;SDS011;40566;50.006;36.180;2022-07-25T23:30:28;6.05;;;2.75;;
54665;SDS011;40566;50.006;36.180;2022-07-25T23:35:29;7.35;;;2.97;;
54665;SDS011;40566;50.006;36.180;2022-07-25T23:40:30;5.43;;;2.72;;
54665;SDS011;40566;50.006;36.180;2022-07-25T23:45:30;6.97;;;2.80;;
54665;SDS011;40566;50.006;36.180;2022-07-25T23:50:31;6.00;;;2.72;;
54665;SDS011;40566;50.006;36.180;2022-07-25T23:55:32;5.72;;;2.53;;
